Tiempo atmosférico en la estación meteorológica de Azuaga, Badajoz (550 m.)



Fecha
DESCASC
Temp. máxima en grados centígrados (hora)
DESCASC
Temp. mínima en grados centígrados (hora)
DESCASC
Temp. media en grados centígrados
DESCASC
Racha de viento máxima en m/sg (hora)
DESCASC
Velocidad máxima media en intervalos de 10 minutos(hora)
DESCASC
Precipitaciones diarias en mm
DESCASC
Precipitaciones de 00:00 a 06:00 en mm
DESCASC
Precipitaciones de 06:00 a 12:00 en mm
DESCASC
Precipitaciones de 12:00 a 18:00 en mm
DESCASC
Precipitaciones de 18:00 a 24:00 en mm
DESCASC
18-02-2018 15.6 (15:10) 6.7 (23:59) 11.2 7.22 (15:40) 4.17 (12:30) 0 0 0 0 0
17-02-2018 16.3 (15:50) 4.9 (09:00) 10.6 6.94 (17:20) 4.17 (17:20) 0 0 0 0 0
16-02-2018 18.1 (16:50) 5.2 (07:40) 11.7 5 (14:50) 3.06 (15:20) 0 0 0 0 0
15-02-2018 15.5 (17:30) 5.3 (00:00) 10.4 5.28 (17:40) 2.5 (11:40) 0 0 0 0 0
14-02-2018 12.4 (17:30) 2.8 (00:00) 7.6 7.22 (13:00) 4.44 (13:00) 0 0 0 0 0
13-02-2018 10.7 (16:40) 0 (00:00) 5.3 9.17 (15:30) 6.11 (14:30) 0 0 0 0 0
12-02-2018 11.2 (15:50) 3 (00:00) 7.1 12.78 (15:20) 9.72 (15:30) 1.6 0 1.6 0 0
11-02-2018 14.7 (17:10) 1 (00:00) 7.8 11.39 (19:10) 8.33 (19:10) 0 0 0 0 0
10-02-2018 9.4 (15:00) 2 (00:00) 5.7 7.78 (03:20) 5.28 (03:20) 0 0 0 0 0
09-02-2018 9.3 (16:30) -1.5 (-00:0) 3.9 7.5 (17:40) 5 (17:50) 0 0 0 0 0
08-02-2018 7.6 (16:10) -2.4 (-00:0) 2.6 11.67 (10:30) 6.39 (10:30) 0 0 0 0 0
07-02-2018 7.2 (15:00) -2 (-00:0) 2.6 11.39 (15:00) 5.83 (14:10) 0 0 0 0 0
06-02-2018 8.6 (16:00) -0.1 (00:00) 4.3 10.83 (18:40) 7.5 (18:40) 0 0 0 0 0
05-02-2018 7.3 (15:20) 0.4 (00:00) 3.9 9.17 (20:20) 5.56 (20:20) 0 0 0 0 0
04-02-2018 7.6 (17:00) 1.2 (00:00) 4.4 12.78 (04:20) 8.61 (01:50) 0.4 0 0 0 0.4
03-02-2018 9.7 (16:00) -1.3 (-00:0) 4.2 10 (14:30) 7.22 (14:40) 0 0 0 0 0
02-02-2018 8.9 (16:10) -1.4 (-00:0) 3.7 9.72 (15:10) 6.67 (05:50) 0 0 0 0 0
01-02-2018 12.3 (14:00) 3.6 (00:00) 8 11.67 (16:20) 8.33 (22:20) 0 0 0 0 0
31-01-2018 14.4 (16:50) 5.2 (00:00) 9.8 5.83 (14:20) 3.89 (15:30) 0 0 0 0 0
30-01-2018 15.4 (15:40) 3.8 (00:00) 9.6 7.78 (12:30) 5.28 (12:20) 0 0 0 0 0
29-01-2018 14.7 (16:20) 3.7 (00:00) 9.2 9.17 (15:20) 5 (13:00) 0 0 0 0 0
28-01-2018 11.8 (17:10) 1.3 (00:00) 6.6 16.39 (13:30) 9.44 (13:30) 0 0 0 0 0
27-01-2018 9.8 (15:10) -0.4 (00:00) 4.7 10.56 (13:10) 7.22 (13:30) 0 0 0 0 0
26-01-2018 9.1 (16:30) 0.7 (00:00) 4.9 14.72 (03:50) 10.83 (03:50) 0 0 0 0 0
25-01-2018 11 (13:10) 4.1 (00:00) 7.5 13.61 (23:50) 10 (23:20) 2.2 0 0 1.6 0.6
24-01-2018 18.2 (16:00) 4.9 (00:00) 11.6 5 (16:20) 3.61 (16:00) 0 0 0 0 0
23-01-2018 13.5 (17:10) 3.9 (00:00) 8.7 3.89 (14:50) 2.22 (06:30) 0.2 0.2 0 0 0
22-01-2018 13.6 (16:50) 4.5 (00:00) 9.1 5.83 (18:20) 4.17 (18:20) 0 0 0 0 0

Gráficas

Temp. máximas Temp. mínimas Temp. medias Precipitaciones Rachas de viento máximas Velocidades máximas media en intervalos de 10 minutos

Datos horarios

Fecha y hora oficial Temperatura (ºC) Velocidad del viento (km/h) Dirección del viento Racha (km/h) Dirección de racha Precipitación (mm) Presión (hPa) Tendencia (hPa) Humedad (%)
2018-02-20 23:00:00 8.2 4 Noroeste 9 Noroeste 0 -- -- 67
2018-02-20 22:00:00 9 5 Noroeste 12 Noroeste 0 -- -- 63
2018-02-20 21:00:00 10 6 Noroeste 12 Norte 0 -- -- 59
2018-02-20 20:00:00 10.6 7 Norte 12 Norte 0 -- -- 58
2018-02-20 19:00:00 13.6 7 Norte 27 Norte 0 -- -- 51
2018-02-20 18:00:00 16.2 12 Noroeste 19 Noroeste 0 -- -- 44
2018-02-20 17:00:00 16.4 8 Norte 20 Norte 0 -- -- 43
2018-02-20 16:00:00 16.4 9 Nordeste 20 Nordeste 0 -- -- 44
2018-02-20 15:00:00 16.2 9 Nordeste 22 Nordeste 0 -- -- 43
2018-02-20 14:00:00 15.7 9 Nordeste 27 Norte 0 -- -- 48
2018-02-20 13:00:00 14.8 10 Nordeste 24 Nordeste 0 -- -- 48
2018-02-20 12:00:00 13.6 13 Nordeste 24 Nordeste 0 -- -- 53
2018-02-20 11:00:00 12 8 Nordeste 15 Nordeste 0 -- -- 60
2018-02-20 10:00:00 8.9 3 Norte 5 Oeste 0 -- -- 69
2018-02-20 09:00:00 4.4 4 Oeste 10 Oeste 0 -- -- 83
2018-02-20 08:00:00 3.5 6 Oeste 9 Noroeste 0 -- -- 80
2018-02-20 07:00:00 4.7 4 Oeste 8 Nordeste 0 -- -- 77
2018-02-20 06:00:00 6.5 4 Este 10 Nordeste 0 -- -- 74
2018-02-20 05:00:00 5.2 2 Noroeste 6 Noroeste 0 -- -- 77
2018-02-20 04:00:00 5.3 3 Oeste 7 Norte 0 -- -- 75
2018-02-20 03:00:00 5 4 Noroeste 6 Noroeste 0 -- -- 75
2018-02-20 02:00:00 4.7 4 Oeste 7 Oeste 0 -- -- 76
2018-02-20 01:00:00 6 5 Noroeste 10 Norte 0 -- -- 71
2018-02-20 00:00:00 6.8 5 Norte 12 Norte 0 -- -- 69
2018-02-19 23:00:00 7.6 5 Norte 9 Norte 0 -- -- 66
2018-02-19 22:00:00 7.9 5 Noroeste 10 Norte 0 -- -- 66
2018-02-19 21:00:00 8.5 5 Norte 10 Noroeste 0 -- -- 64
2018-02-19 20:00:00 9.5 4 Norte 12 Norte 0 -- -- 61
2018-02-19 19:00:00 11.9 7 Norte 23 Norte 0 -- -- 55
2018-02-19 18:00:00 13.9 14 Norte 25 Nordeste 0 -- -- 48
2018-02-19 17:00:00 14.6 11 Nordeste 26 Nordeste -- -- -- 44
2018-02-19 16:00:00 14.6 13 Nordeste 28 Nordeste 0 -- -- 45
2018-02-19 15:00:00 14.6 11 Nordeste 30 Este 0 -- -- 46
2018-02-19 14:00:00 14 13 Nordeste 30 Este 0 -- -- 48
2018-02-19 13:00:00 13.3 16 Nordeste 33 Nordeste -- -- -- 48
2018-02-19 12:00:00 12 17 Este 31 Nordeste -- -- -- 52
2018-02-19 11:00:00 10.9 13 Este 27 Este 0 -- -- 55
2018-02-19 10:00:00 8.1 12 Norte 19 Norte 0 -- -- 65
2018-02-19 09:00:00 3.2 6 Noroeste 9 Noroeste 0 -- -- 75
2018-02-19 08:00:00 3.9 3 Norte 7 Nordeste 0 -- -- 67
2018-02-19 07:00:00 2.9 3 Noroeste 6 Noroeste 0 -- -- 68
2018-02-19 06:00:00 2.9 3 Oeste 6 Oeste 0 -- -- 66
2018-02-19 05:00:00 2.4 4 Noroeste 10 Oeste 0 -- -- 67
2018-02-19 04:00:00 2.7 8 Oeste 9 Noroeste 0 -- -- 65
2018-02-19 03:00:00 3.2 5 Oeste 9 Oeste 0 -- -- 63
2018-02-19 02:00:00 4.1 5 Noroeste 8 Noroeste 0 -- -- 59
2018-02-19 01:00:00 4.2 3 Noroeste 5 Noroeste 0 -- -- 60
2018-02-19 00:00:00 6.7 3 Este 11 Este 0 -- -- 51
2018-02-18 23:00:00 7.3 7 Nordeste 15 Norte 0 -- -- 49
2018-02-18 22:00:00 7.3 11 Norte 17 Norte 0 -- -- 57
2018-02-18 21:00:00 8.9 9 Norte 19 Norte 0 -- -- 57
2018-02-18 20:00:00 10.2 11 Norte 17 Norte 0 -- -- 54
2018-02-18 19:00:00 12.5 8 Norte 17 Nordeste 0 -- -- 51
2018-02-18 18:00:00 13.9 11 Nordeste 21 Nordeste 0 -- -- 48
2018-02-18 17:00:00 15.3 10 Nordeste 23 Nordeste 0 -- -- 44
2018-02-18 16:00:00 15.3 12 Nordeste 26 Nordeste 0 -- -- 46
2018-02-18 15:00:00 15.5 11 Nordeste 22 Nordeste 0 -- -- 49
2018-02-18 14:00:00 15 12 Nordeste 23 Nordeste 0 -- -- 53
2018-02-18 13:00:00 14 12 Este 24 Este 0 -- -- 56
2018-02-18 12:00:00 12.6 12 Este 21 Este 0 -- -- 58
2018-02-18 11:00:00 10.7 10 Nordeste 26 Nordeste 0 -- -- 63
2018-02-18 10:00:00 9.6 12 Nordeste 23 Este 0 -- -- 70
2018-02-18 09:00:00 7.8 9 Nordeste 15 Nordeste 0 -- -- 81
2018-02-18 08:00:00 7.5 7 Nordeste 12 Nordeste 0 -- -- 83
2018-02-18 07:00:00 7.5 5 Nordeste 13 Nordeste 0 -- -- 85
2018-02-18 06:00:00 7.7 5 Nordeste 8 Nordeste 0 -- -- 84
2018-02-18 05:00:00 7.5 4 Noroeste 6 Norte 0 -- -- 84
2018-02-18 04:00:00 7.4 4 Oeste 6 Oeste 0 -- -- 84
2018-02-18 03:00:00 7.1 4 Oeste 8 Oeste 0 -- -- 83
2018-02-18 02:00:00 7.2 4 Oeste 7 Noroeste 0 -- -- 82
2018-02-18 01:00:00 7.4 4 Noroeste 8 Noroeste 0 -- -- 80
2018-02-18 00:00:00 7.8 4 Oeste 12 Oeste 0 -- -- 77
2018-02-17 23:00:00 8.4 5 Oeste 7 Oeste 0 -- -- 68
2018-02-17 22:00:00 8.5 4 Noroeste 8 Noroeste 0 -- -- 66
2018-02-17 21:00:00 8.8 6 Noroeste 10 Noroeste 0 -- -- 67
2018-02-17 20:00:00 9.8 5 Noroeste 12 Noroeste 0 -- -- 69
2018-02-17 19:00:00 12.1 8 Noroeste 15 Noroeste 0 -- -- 59
2018-02-17 18:00:00 14.3 10 Norte 25 Norte 0 -- -- 57
2018-02-17 17:00:00 16.2 12 Noroeste 22 Noroeste 0 -- -- 45
2018-02-17 16:00:00 16.1 12 Noroeste 21 Noroeste 0 -- -- 49
2018-02-17 15:00:00 15.8 12 Noroeste 23 Noroeste 0 -- -- 55
2018-02-17 14:00:00 15.9 9 Oeste 20 Oeste 0 -- -- 57
2018-02-17 13:00:00 15 4 Oeste 12 Noroeste 0 -- -- 65
2018-02-17 12:00:00 12.4 5 Norte 14 Noroeste 0 -- -- 77
2018-02-17 11:00:00 8.4 8 Noroeste 13 Oeste 0 -- -- 98
2018-02-17 10:00:00 6.4 4 Noroeste 12 Oeste 0 -- -- 98
2018-02-17 09:00:00 4.9 7 Oeste 14 Noroeste 0 -- -- 97
2018-02-17 08:00:00 5.7 8 Oeste 13 Oeste 0 -- -- 96
2018-02-17 07:00:00 5.5 7 Oeste 13 Noroeste 0 -- -- 95
2018-02-17 06:00:00 6 8 Oeste 14 Noroeste 0 -- -- 94
2018-02-17 05:00:00 6.4 8 Oeste 14 Noroeste 0 -- -- 92
2018-02-17 04:00:00 6.1 8 Oeste 13 Noroeste 0 -- -- 90
2018-02-17 03:00:00 6 9 Oeste 18 Noroeste 0 -- -- 87
2018-02-17 02:00:00 8.8 0 Calma 4 Este 0 -- -- 82
2018-02-17 01:00:00 9 3 Nordeste 4 Este 0 -- -- 80
2018-02-17 00:00:00 9.2 3 Oeste 7 Oeste 0 -- -- 79
2018-02-16 23:00:00 8.7 5 Oeste 8 Noroeste 0 -- -- 75
2018-02-16 22:00:00 10.3 2 Noroeste 8 Oeste 0 -- -- 69
2018-02-16 21:00:00 12.2 3 Noroeste 5 Noroeste 0 -- -- 59
2018-02-16 20:00:00 12.8 3 Noroeste 8 Norte 0 -- -- 57
2018-02-16 19:00:00 15 5 Noroeste 14 Noroeste 0 -- -- 55
2018-02-16 18:00:00 17.4 11 Noroeste 17 Oeste 0 -- -- 47
2018-02-16 17:00:00 18 9 Oeste 17 Oeste 0 -- -- 46
2018-02-16 16:00:00 17.9 8 Oeste 15 Oeste 0 -- -- 49
2018-02-16 15:00:00 17.1 7 Noroeste 18 Oeste 0 -- -- 50
2018-02-16 14:00:00 16.5 4 Norte 17 Noroeste 0 -- -- 58
2018-02-16 13:00:00 15 4 Norte 10 Noroeste 0 -- -- 65
2018-02-16 12:00:00 13.9 3 Oeste 6 Norte 0 -- -- 73
2018-02-16 11:00:00 12.2 2 Este 6 Este 0 -- -- 82
2018-02-16 10:00:00 8.3 2 Norte 5 Noroeste 0 -- -- 99
2018-02-16 09:00:00 6.9 2 Norte 5 Noroeste 0 -- -- 99
2018-02-16 08:00:00 5.4 3 Noroeste 5 Noroeste 0 -- -- 98
2018-02-16 07:00:00 5.6 3 Oeste 4 Noroeste 0 -- -- 97
2018-02-16 06:00:00 6 3 Noroeste 5 Noroeste 0 -- -- 97
2018-02-16 05:00:00 6.2 3 Noroeste 4 Oeste 0 -- -- 95
2018-02-16 04:00:00 7 2 Norte 9 Norte 0 -- -- 95
2018-02-16 03:00:00 6.1 3 Oeste 4 Oeste 0 -- -- 95
2018-02-16 02:00:00 6.5 2 Oeste 5 Oeste 0 -- -- 94
2018-02-16 01:00:00 6.4 3 Oeste 6 Noroeste 0 -- -- 91
2018-02-16 00:00:00 8.9 4 Norte 8 Nordeste 0 -- -- 86
2018-02-15 23:00:00 9.1 3 Nordeste 8 Nordeste 0 -- -- 85
2018-02-15 22:00:00 9.5 4 Este 8 Norte 0 -- -- 84
2018-02-15 21:00:00 10.2 6 Nordeste 13 Nordeste 0 -- -- 81
2018-02-15 20:00:00 11 6 Norte 10 Norte 0 -- -- 78
2018-02-15 19:00:00 13.4 7 Norte 13 Norte 0 -- -- 71
2018-02-15 18:00:00 15.3 6 Noroeste 19 Norte 0 -- -- 64
2018-02-15 17:00:00 15.4 6 Norte 15 Norte 0 -- -- 63
2018-02-15 16:00:00 15.3 7 Norte 14 Norte 0 -- -- 63
2018-02-15 15:00:00 14.6 7 Norte 14 Nordeste 0 -- -- 66
2018-02-15 14:00:00 13.6 7 Nordeste 14 Norte 0 -- -- 68
2018-02-15 13:00:00 12.3 9 Este 15 Este 0 -- -- 72
2018-02-15 12:00:00 11.6 9 Este 16 Este 0 -- -- 75
2018-02-15 11:00:00 10.5 7 Nordeste 14 Nordeste 0 -- -- 79
2018-02-15 10:00:00 9.1 4 Norte 6 Norte 0 -- -- 88
2018-02-15 09:00:00 8.6 2 Noroeste 7 Nordeste 0 -- -- 88
2018-02-15 08:00:00 7.9 2 Noroeste 5 Oeste 0 -- -- 89
2018-02-15 07:00:00 7.7 3 Oeste 5 Noroeste 0 -- -- 90
2018-02-15 06:00:00 7.4 3 Noroeste 6 Oeste 0 -- -- 91
2018-02-15 05:00:00 7.2 3 Noroeste 5 Norte 0 -- -- 91
2018-02-15 04:00:00 6.7 2 Noroeste 6 Oeste 0 -- -- 93
2018-02-15 03:00:00 5.8 4 Oeste 8 Oeste 0 -- -- 93
2018-02-15 02:00:00 5.3 5 Oeste 12 Oeste 0 -- -- 93
2018-02-15 01:00:00 5.9 7 Oeste 10 Oeste 0 -- -- 93
2018-02-15 00:00:00 6 6 Oeste 12 Oeste 0 -- -- 87
2018-02-14 23:00:00 6.5 8 Oeste 13 Oeste 0 -- -- 85
2018-02-14 22:00:00 7.4 12 Oeste 15 Oeste 0 -- -- 81
2018-02-14 21:00:00 8 10 Oeste 14 Oeste 0 -- -- 78
2018-02-14 20:00:00 8.5 10 Oeste 13 Oeste 0 -- -- 76
2018-02-14 19:00:00 10.2 10 Oeste 15 Oeste 0 -- -- 68
2018-02-14 18:00:00 11.8 10 Oeste 19 Oeste 0 -- -- 62
2018-02-14 17:00:00 11.8 15 Oeste 23 Oeste 0 -- -- 62
2018-02-14 16:00:00 11.7 10 Oeste 22 Oeste 0 -- -- 67
2018-02-14 15:00:00 11.2 13 Oeste 21 Noroeste 0 -- -- 65
2018-02-14 14:00:00 11.5 11 Noroeste 22 Oeste 0 -- -- 62
2018-02-14 13:00:00 10.5 16 Oeste 26 Oeste 0 -- -- 62
2018-02-14 12:00:00 9.6 4 Sur 8 Sur 0 -- -- 70
2018-02-14 11:00:00 8 0 Calma 6 Oeste 0 -- -- 75
2018-02-14 10:00:00 6.3 4 Sur 13 Sudoeste 0 -- -- 82
2018-02-14 09:00:00 4.2 3 Sudoeste 9 Oeste 0 -- -- 90
2018-02-14 08:00:00 3.6 6 Oeste 8 Sudoeste 0 -- -- 93
2018-02-14 07:00:00 3.3 5 Oeste 13 Oeste 0 -- -- 90
2018-02-14 06:00:00 3.1 10 Oeste 13 Oeste 0 -- -- 93
2018-02-14 05:00:00 3.2 6 Oeste 13 Oeste 0 -- -- 91
2018-02-14 04:00:00 2.9 8 Oeste 13 Oeste 0 -- -- 89
2018-02-14 03:00:00 3.9 9 Oeste 14 Oeste 0 -- -- 84
2018-02-14 02:00:00 3.7 8 Oeste 13 Oeste 0 -- -- 84
2018-02-14 01:00:00 4.1 10 Oeste 14 Oeste 0 -- -- 84
2018-02-14 00:00:00 4 7 Oeste 11 Oeste 0 -- -- 84
2018-02-13 23:00:00 4.4 9 Oeste 12 Oeste 0 -- -- 82
2018-02-13 22:00:00 5.4 9 Oeste 15 Oeste 0 -- -- 79
2018-02-13 21:00:00 6.1 8 Oeste 14 Oeste 0 -- -- 77
2018-02-13 20:00:00 6.6 12 Oeste 18 Oeste 0 -- -- 72
2018-02-13 19:00:00 8 12 Oeste 21 Oeste 0 -- -- 61
2018-02-13 18:00:00 10.2 14 Oeste 26 Oeste 0 -- -- 53
2018-02-13 17:00:00 10.5 15 Oeste 26 Oeste 0 -- -- 46
2018-02-13 16:00:00 10.5 15 Oeste 33 Oeste 0 -- -- 44
2018-02-13 15:00:00 10.1 18 Oeste 31 Oeste 0 -- -- 47
2018-02-13 14:00:00 9.3 14 Oeste 27 Oeste 0 -- -- 48
2018-02-13 13:00:00 8 16 Oeste 24 Oeste 0 -- -- 50
2018-02-13 12:00:00 6.7 14 Oeste 23 Oeste 0 -- -- 60
2018-02-13 11:00:00 5.3 9 Oeste 17 Oeste 0 -- -- 73
2018-02-13 10:00:00 3.6 8 Oeste 18 Oeste 0 -- -- 81
2018-02-13 09:00:00 0.7 10 Oeste 17 Oeste 0 -- -- 90
2018-02-13 08:00:00 0.3 11 Oeste 16 Oeste 0 -- -- 88
2018-02-13 07:00:00 0.7 10 Oeste 14 Oeste 0 -- -- 86
2018-02-13 06:00:00 1.4 10 Oeste 18 Oeste 0 -- -- 83
2018-02-13 05:00:00 1.6 11 Oeste 17 Oeste 0 -- -- 82
2018-02-13 04:00:00 2.1 12 Oeste 25 Oeste 0 -- -- 81
2018-02-13 03:00:00 2.1 12 Oeste 24 Oeste 0 -- -- 81
2018-02-13 02:00:00 2.5 12 Oeste 19 Oeste 0 -- -- 80
2018-02-13 01:00:00 2.5 13 Oeste 23 Noroeste 0 -- -- 78
2018-02-13 00:00:00 3.5 15 Oeste 24 Oeste 0 -- -- 74
2018-02-12 23:00:00 3.6 15 Oeste 21 Oeste 0 -- -- 68
2018-02-12 22:00:00 4.8 9 Oeste 15 Oeste 0 -- -- 59
2018-02-12 21:00:00 5.2 12 Oeste 18 Oeste 0 -- -- 61
2018-02-12 20:00:00 5.4 10 Oeste 17 Noroeste 0 -- -- 61
2018-02-12 19:00:00 7.9 14 Noroeste 32 Noroeste 0 -- -- 53
2018-02-12 18:00:00 10.5 23 Noroeste 39 Noroeste 0 -- -- 42
2018-02-12 17:00:00 11 23 Noroeste 41 Noroeste 0 -- -- 52
2018-02-12 16:00:00 11.2 31 Noroeste 46 Noroeste 0 -- -- 51
2018-02-12 15:00:00 10.7 33 Noroeste 46 Noroeste 0 -- -- 56
2018-02-12 14:00:00 10.9 26 Noroeste 39 Oeste 0 -- -- 68
2018-02-12 13:00:00 9.8 27 Noroeste 40 Noroeste 0 -- -- 76
2018-02-12 12:00:00 9.7 27 Noroeste 40 Noroeste 0 -- -- 80
2018-02-12 11:00:00 8.9 21 Noroeste 33 Noroeste 0 -- -- 87
2018-02-12 10:00:00 8.6 17 Oeste 26 Oeste 1.2 -- -- 97
2018-02-12 09:00:00 8 15 Oeste 23 Oeste 0.4 -- -- 97
2018-02-12 08:00:00 7.8 14 Oeste 28 Noroeste 0 -- -- 97
2018-02-12 07:00:00 7.7 14 Oeste 24 Noroeste 0 -- -- 95
2018-02-12 06:00:00 7.5 12 Oeste 26 Oeste 0 -- -- 94
2018-02-12 05:00:00 8.3 15 Oeste 30 Oeste 0 -- -- 93
2018-02-12 04:00:00 8.8 21 Oeste 35 Oeste 0 -- -- 92
2018-02-12 03:00:00 9 19 Oeste 26 Oeste 0 -- -- 94
2018-02-12 02:00:00 8.5 12 Oeste 20 Oeste 0 -- -- 97
2018-02-12 01:00:00 8.7 12 Oeste 28 Noroeste 0 -- -- 95
2018-02-12 00:00:00 9.6 17 Oeste 32 Noroeste 0 -- -- 94
2018-02-11 23:00:00 9.5 14 Oeste 26 Oeste 0 -- -- 91
2018-02-11 22:00:00 9.8 14 Noroeste 21 Oeste 0 -- -- 90
2018-02-11 21:00:00 10.7 11 Oeste 30 Oeste 0 -- -- 85
2018-02-11 20:00:00 11 20 Oeste 41 Noroeste 0 -- -- 85
2018-02-11 19:00:00 11.4 27 Noroeste 39 Noroeste 0 -- -- 82
2018-02-11 18:00:00 13.6 22 Noroeste 33 Noroeste 0 -- -- 73
2018-02-11 17:00:00 14.6 16 Oeste 30 Noroeste 0 -- -- 64
2018-02-11 16:00:00 14.4 16 Noroeste 28 Oeste 0 -- -- 65
2018-02-11 15:00:00 12.9 18 Noroeste 28 Noroeste 0 -- -- 68
2018-02-11 14:00:00 13.2 18 Noroeste 30 Noroeste 0 -- -- 64
2018-02-11 13:00:00 12.2 11 Noroeste 26 Noroeste 0 -- -- 68
2018-02-11 12:00:00 10 15 Noroeste 24 Noroeste 0 -- -- 73
2018-02-11 11:00:00 7.6 12 Noroeste 21 Noroeste 0 -- -- 74
2018-02-11 10:00:00 5.3 8 Oeste 15 Oeste 0 -- -- 81
2018-02-11 09:00:00 1.7 10 Oeste 15 Oeste 0 -- -- 89
2018-02-11 08:00:00 1.3 10 Oeste 14 Oeste 0 -- -- 87
2018-02-11 07:00:00 1.5 11 Oeste 13 Sudoeste 0 -- -- 85
2018-02-11 06:00:00 1.5 9 Oeste 11 Oeste 0 -- -- 82
2018-02-11 05:00:00 1.1 5 Sur 9 Noroeste 0 -- -- 84
2018-02-11 04:00:00 1.4 7 Noroeste 17 Noroeste 0 -- -- 81
2018-02-11 03:00:00 1.5 13 Noroeste 18 Noroeste 0 -- -- 82
2018-02-11 02:00:00 2.2 9 Noroeste 16 Noroeste 0 -- -- 79
2018-02-11 01:00:00 2.8 9 Oeste 12 Oeste 0 -- -- 78
2018-02-11 00:00:00 3.3 6 Oeste 12 Oeste 0 -- -- 78
2018-02-10 23:00:00 3.8 5 Noroeste 9 Noroeste 0 -- -- 75
2018-02-10 22:00:00 4.1 5 Noroeste 13 Noroeste 0 -- -- 74
2018-02-10 21:00:00 4.2 9 Noroeste 17 Noroeste 0 -- -- 75
2018-02-10 20:00:00 5.4 13 Noroeste 19 Noroeste 0 -- -- 73
2018-02-10 19:00:00 7.1 12 Noroeste 23 Noroeste 0 -- -- 65
2018-02-10 18:00:00 8.7 13 Norte 22 Noroeste 0 -- -- 65
2018-02-10 17:00:00 8.9 13 Norte 22 Noroeste 0 -- -- 68
2018-02-10 16:00:00 9.1 11 Norte 24 Norte 0 -- -- 67
2018-02-10 15:00:00 9.4 13 Noroeste 23 Noroeste 0 -- -- 71
2018-02-10 14:00:00 8 4 Noroeste 12 Noroeste 0 -- -- 81
2018-02-10 13:00:00 6.2 4 Norte 13 Norte 0 -- -- 97
2018-02-10 12:00:00 4.2 8 Norte 17 Norte 0 -- -- 99
2018-02-10 11:00:00 3.5 8 Norte 14 Noroeste 0 -- -- 99
2018-02-10 10:00:00 3.2 8 Norte 16 Noroeste 0 -- -- 99
2018-02-10 09:00:00 3.3 8 Noroeste 15 Noroeste 0 -- -- 99
2018-02-10 08:00:00 3.3 7 Noroeste 17 Noroeste 0 -- -- 99
2018-02-10 07:00:00 3.4 13 Noroeste 21 Noroeste 0 -- -- 99
2018-02-10 06:00:00 3.4 12 Noroeste 22 Noroeste 0 -- -- 98
2018-02-10 05:00:00 3.7 11 Noroeste 24 Noroeste 0 -- -- 98
2018-02-10 04:00:00 3.4 14 Noroeste 28 Noroeste 0 -- -- 98
2018-02-10 03:00:00 3.3 14 Noroeste 24 Noroeste 0 -- -- 97
2018-02-10 02:00:00 2 6 Oeste 13 Noroeste 0 -- -- 94
2018-02-10 01:00:00 2.3 6 Noroeste 11 Noroeste 0 -- -- 91
2018-02-10 00:00:00 3.2 10 Noroeste 14 Noroeste 0 -- -- 89
2018-02-09 23:00:00 5 3 Norte 7 Norte 0 -- -- 82
2018-02-09 22:00:00 6.1 4 Norte 13 Norte 0 -- -- 78
2018-02-09 21:00:00 6.2 8 Norte 18 Noroeste 0 -- -- 78
2018-02-09 20:00:00 6.4 11 Noroeste 18 Noroeste 0 -- -- 78
2018-02-09 19:00:00 7.1 13 Noroeste 24 Noroeste 0 -- -- 76
2018-02-09 18:00:00 8.1 18 Noroeste 27 Oeste 0 -- -- 70
2018-02-09 17:00:00 9.1 12 Noroeste 20 Noroeste 0 -- -- 64
2018-02-09 16:00:00 9 10 Oeste 20 Oeste 0 -- -- 61
2018-02-09 15:00:00 8.8 8 Oeste 18 Oeste 0 -- -- 56
2018-02-09 14:00:00 8.7 9 Oeste 15 Oeste 0 -- -- 48
2018-02-09 13:00:00 7.4 5 Noroeste 22 Noroeste 0 -- -- 46
2018-02-09 12:00:00 5.7 15 Noroeste 23 Noroeste 0 -- -- 48
2018-02-09 11:00:00 4.6 7 Noroeste 14 Noroeste 0 -- -- 53
2018-02-09 10:00:00 2.4 7 Noroeste 15 Oeste 0 -- -- 61
2018-02-09 09:00:00 -0.5 6 Oeste 11 Oeste 0 -- -- 68
2018-02-09 08:00:00 -1.3 9 Oeste 13 Oeste 0 -- -- 68
2018-02-09 07:00:00 -1.5 8 Oeste 10 Oeste 0 -- -- 68
2018-02-09 06:00:00 -0.9 7 Oeste 9 Oeste 0 -- -- 64
2018-02-09 05:00:00 -0.7 6 Oeste 8 Oeste 0 -- -- 63
2018-02-09 04:00:00 -0.3 5 Oeste 8 Oeste 0 -- -- 63
2018-02-09 03:00:00 -0.1 6 Oeste 7 Oeste 0 -- -- 62
2018-02-09 02:00:00 -1.4 3 Sudoeste 5 Sudoeste 0 -- -- 69
2018-02-09 01:00:00 -0.3 4 Sudeste 8 Sudeste 0 -- -- 65
2018-02-09 00:00:00 0 5 Oeste 9 Oeste 0 -- -- 63
2018-02-08 23:00:00 0.1 5 Oeste 9 Noroeste 0 -- -- 63
2018-02-08 22:00:00 0.7 6 Noroeste 11 Norte 0 -- -- 58
2018-02-08 21:00:00 0.9 5 Noroeste 12 Noroeste 0 -- -- 61
2018-02-08 20:00:00 2.2 6 Norte 15 Norte 0 -- -- 55
2018-02-08 19:00:00 4.4 8 Norte 23 Norte 0 -- -- 50
2018-02-08 18:00:00 6.7 15 Norte 30 Norte 0 -- -- 43
2018-02-08 17:00:00 7.5 15 Nordeste 26 Nordeste 0 -- -- 41
2018-02-08 16:00:00 7.4 14 Nordeste 29 Norte 0 -- -- 41
2018-02-08 15:00:00 7 15 Nordeste 27 Nordeste 0 -- -- 43
2018-02-08 14:00:00 6.2 18 Nordeste 29 Norte 0 -- -- 45
2018-02-08 13:00:00 5.5 14 Nordeste 30 Nordeste 0 -- -- 47
2018-02-08 12:00:00 4.4 18 Nordeste 39 Nordeste 0 -- -- 51
2018-02-08 11:00:00 3 22 Nordeste 42 Nordeste 0 -- -- 53
2018-02-08 10:00:00 1.7 20 Nordeste 32 Nordeste 0 -- -- 60
2018-02-08 09:00:00 -1.2 17 Nordeste 27 Nordeste 0 -- -- 73
2018-02-08 08:00:00 -1.8 16 Norte 22 Norte 0 -- -- 75
2018-02-08 07:00:00 -1.9 11 Norte 18 Nordeste 0 -- -- 74
2018-02-08 06:00:00 -1 10 Nordeste 26 Nordeste 0 -- -- 71
2018-02-08 05:00:00 -0.8 15 Norte 23 Nordeste 0 -- -- 71
2018-02-08 04:00:00 -1.1 11 Norte 19 Nordeste 0 -- -- 74
2018-02-08 03:00:00 -0.2 13 Norte 20 Nordeste 0 -- -- 72
2018-02-08 02:00:00 0.2 12 Nordeste 16 Nordeste 0 -- -- 71
2018-02-08 01:00:00 0.1 10 Nordeste 16 Norte 0 -- -- 71
2018-02-08 00:00:00 -0.5 7 Norte 12 Nordeste 0 -- -- 72
2018-02-07 23:00:00 0.1 8 Nordeste 17 Nordeste 0 -- -- 69
2018-02-07 22:00:00 1.3 6 Nordeste 16 Nordeste 0 -- -- 65
2018-02-07 21:00:00 2.1 6 Nordeste 14 Nordeste 0 -- -- 62
2018-02-07 20:00:00 3.2 9 Este 17 Este 0 -- -- 59
2018-02-07 19:00:00 4.8 11 Nordeste 26 Este 0 -- -- 51
2018-02-07 18:00:00 5.2 9 Nordeste 33 Este 0 -- -- 51
2018-02-07 17:00:00 6.7 14 Este 33 Este 0 -- -- 42
2018-02-07 16:00:00 6.9 18 Nordeste 32 Nordeste 0 -- -- 42
2018-02-07 15:00:00 7.2 19 Nordeste 41 Este 0 -- -- 45
2018-02-07 14:00:00 6.7 19 Nordeste 39 Este 0 -- -- 43
2018-02-07 13:00:00 6.4 19 Este 33 Este 0 -- -- 43
2018-02-07 12:00:00 5.5 16 Este 31 Nordeste 0 -- -- 49
2018-02-07 11:00:00 4.2 14 Este 25 Este 0 -- -- 56
2018-02-07 10:00:00 0.7 3 Noroeste 10 Nordeste 0 -- -- 75
2018-02-07 09:00:00 0.1 7 Nordeste 11 Norte 0 -- -- 76
2018-02-07 08:00:00 -0.1 3 Norte 9 Nordeste 0 -- -- 76
2018-02-07 07:00:00 -0.6 4 Nordeste 8 Nordeste 0 -- -- 77
2018-02-07 06:00:00 -0.5 4 Nordeste 10 Este 0 -- -- 75
2018-02-07 05:00:00 -0.6 5 Este 12 Este 0 -- -- 77
2018-02-07 04:00:00 -1.1 4 Este 12 Nordeste 0 -- -- 77
2018-02-07 03:00:00 -1.1 7 Nordeste 12 Nordeste 0 -- -- 74
2018-02-07 02:00:00 -1.6 4 Norte 7 Oeste 0 -- -- 73
2018-02-07 01:00:00 -1.4 4 Oeste 10 Oeste 0 -- -- 73
2018-02-07 00:00:00 -0.1 4 Oeste 10 Sudoeste 0 -- -- 69
2018-02-06 23:00:00 0.6 7 Oeste 12 Oeste 0 -- -- 67
2018-02-06 22:00:00 0.5 7 Oeste 12 Oeste 0 -- -- 69
2018-02-06 21:00:00 0.7 9 Noroeste 15 Noroeste 0 -- -- 68
2018-02-06 20:00:00 2.5 9 Noroeste 29 Noroeste 0 -- -- 59
2018-02-06 19:00:00 5.4 23 Noroeste 39 Noroeste 0 -- -- 49
2018-02-06 18:00:00 7.6 19 Noroeste 34 Noroeste 0 -- -- 48
2018-02-06 17:00:00 8.2 17 Noroeste 27 Noroeste 0 -- -- 50
2018-02-06 16:00:00 8.6 11 Norte 24 Noroeste 0 -- -- 50
2018-02-06 15:00:00 7.7 13 Norte 24 Noroeste 0 -- -- 56
2018-02-06 14:00:00 7.3 12 Norte 28 Nordeste 0 -- -- 59
2018-02-06 13:00:00 6 14 Nordeste 31 Nordeste 0 -- -- 62
2018-02-06 12:00:00 6.2 22 Norte 34 Norte 0 -- -- 64
2018-02-06 11:00:00 4.6 15 Norte 24 Norte 0 -- -- 75
2018-02-06 10:00:00 2.1 16 Noroeste 27 Noroeste 0 -- -- 86
2018-02-06 09:00:00 -0.1 9 Noroeste 21 Noroeste 0 -- -- 94
2018-02-06 08:00:00 0.7 8 Noroeste 28 Norte 0 -- -- 93
2018-02-06 07:00:00 1.9 14 Norte 27 Noroeste 0 -- -- 90
2018-02-06 06:00:00 1.7 15 Norte 28 Noroeste 0 -- -- 91
2018-02-06 05:00:00 0.3 10 Noroeste 22 Noroeste 0 -- -- 91
2018-02-06 04:00:00 1.1 11 Noroeste 20 Noroeste 0 -- -- 87
2018-02-06 03:00:00 1.4 14 Noroeste 20 Noroeste 0 -- -- 89
2018-02-06 02:00:00 1.8 10 Noroeste 18 Noroeste 0 -- -- 88
2018-02-06 01:00:00 1.3 12 Noroeste 18 Noroeste 0 -- -- 90
2018-02-06 00:00:00 2 5 Noroeste 8 Norte 0 -- -- 85
2018-02-05 23:00:00 2.8 3 Norte 8 Noroeste 0 -- -- 86
2018-02-05 22:00:00 3.2 5 Norte 17 Norte 0 -- -- 85
2018-02-05 21:00:00 3.6 7 Norte 33 Nordeste 0 -- -- 82
2018-02-05 20:00:00 5 12 Noroeste 20 Norte 0 -- -- 71
2018-02-05 19:00:00 5.4 5 Oeste 23 Noroeste 0 -- -- 66
2018-02-05 18:00:00 6.2 8 Noroeste 15 Noroeste 0 -- -- 62
2018-02-05 17:00:00 6.4 5 Norte 20 Noroeste 0 -- -- 62
2018-02-05 16:00:00 6.6 16 Noroeste 23 Noroeste 0 -- -- 62
2018-02-05 15:00:00 6.8 14 Noroeste 28 Noroeste 0 -- -- 63
2018-02-05 14:00:00 6.1 13 Noroeste 23 Noroeste 0 -- -- 70
2018-02-05 13:00:00 5.5 10 Noroeste 22 Noroeste 0 -- -- 72
2018-02-05 12:00:00 4.6 15 Noroeste 22 Noroeste 0 -- -- 79
2018-02-05 11:00:00 2.7 15 Noroeste 22 Noroeste 0 -- -- 86
2018-02-05 10:00:00 1.5 16 Noroeste 23 Noroeste 0 -- -- 88
2018-02-05 09:00:00 0.7 13 Noroeste 19 Oeste 0 -- -- 90
2018-02-05 08:00:00 0.4 13 Noroeste 21 Noroeste 0 -- -- 91
2018-02-05 07:00:00 0.8 15 Noroeste 24 Noroeste 0 -- -- 89
2018-02-05 06:00:00 1.6 12 Noroeste 18 Noroeste 0 -- -- 91
2018-02-05 05:00:00 1.7 10 Oeste 15 Oeste 0 -- -- 92
2018-02-05 04:00:00 2.2 6 Oeste 12 Oeste 0 -- -- 93
2018-02-05 03:00:00 2 6 Noroeste 15 Noroeste 0 -- -- 94
2018-02-05 02:00:00 2.4 9 Noroeste 19 Noroeste 0 -- -- 92
2018-02-05 01:00:00 1.9 6 Noroeste 12 Noroeste 0 -- -- 93
2018-02-05 00:00:00 1.2 8 Noroeste 14 Noroeste 0 -- -- 92
2018-02-04 23:00:00 1.8 9 Noroeste 14 Noroeste 0 -- -- 90
2018-02-04 22:00:00 2.5 8 Noroeste 14 Noroeste 0 -- -- 89
2018-02-04 21:00:00 3.4 7 Norte 21 Nordeste 0.4 -- -- 86
2018-02-04 20:00:00 3 21 Nordeste 36 Norte 0 -- -- 86
2018-02-04 19:00:00 5 11 Norte 24 Norte 0 -- -- 72
2018-02-04 18:00:00 6.5 2 Nordeste 11 Nordeste 0 -- -- 61
2018-02-04 17:00:00 7.6 9 Nordeste 21 Norte 0 -- -- 60
2018-02-04 16:00:00 6.6 10 Norte 22 Noroeste 0 -- -- 64
2018-02-04 15:00:00 6.5 16 Noroeste 26 Noroeste 0 -- -- 64
2018-02-04 14:00:00 6.1 13 Noroeste 26 Noroeste 0 -- -- 69
2018-02-04 13:00:00 5 19 Noroeste 29 Noroeste 0 -- -- 72
2018-02-04 12:00:00 4.9 22 Noroeste 32 Noroeste 0 -- -- 80
2018-02-04 11:00:00 4 23 Noroeste 33 Noroeste 0 -- -- 85
2018-02-04 10:00:00 3.8 20 Noroeste 31 Noroeste 0 -- -- 88
2018-02-04 09:00:00 3.9 23 Noroeste 35 Oeste 0 -- -- 91
2018-02-04 08:00:00 4.1 22 Noroeste 35 Noroeste 0 -- -- 91
2018-02-04 07:00:00 4.3 21 Noroeste 41 Noroeste 0 -- -- 92
2018-02-04 06:00:00 4.2 24 Noroeste 38 Noroeste 0 -- -- 93
2018-02-04 05:00:00 5.1 26 Noroeste 46 Noroeste 0 -- -- 91
2018-02-04 04:00:00 5.2 19 Oeste 33 Oeste 0 -- -- 92
2018-02-04 03:00:00 5.5 23 Oeste 35 Oeste 0 -- -- 89
2018-02-04 02:00:00 5.7 27 Oeste 44 Oeste 0 -- -- 92
2018-02-04 01:00:00 5.7 17 Oeste 28 Oeste 0 -- -- 90
2018-02-04 00:00:00 5 8 Oeste 27 Oeste 0 -- -- 73
2018-02-03 23:00:00 4.7 13 Oeste 26 Oeste 0 -- -- 69
2018-02-03 22:00:00 4.6 16 Oeste 22 Oeste 0 -- -- 66
2018-02-03 21:00:00 4.9 14 Oeste 20 Oeste 0 -- -- 61
2018-02-03 20:00:00 5.6 12 Oeste 16 Oeste 0 -- -- 58
2018-02-03 19:00:00 6.2 9 Noroeste 24 Noroeste 0 -- -- 56
2018-02-03 18:00:00 8.7 15 Noroeste 22 Noroeste 0 -- -- 43
2018-02-03 17:00:00 9.5 11 Noroeste 22 Noroeste 0 -- -- 39
2018-02-03 16:00:00 9.7 12 Noroeste 29 Noroeste 0 -- -- 39
2018-02-03 15:00:00 9.1 21 Noroeste 36 Noroeste 0 -- -- 40
2018-02-03 14:00:00 8.6 22 Noroeste 36 Noroeste 0 -- -- 45
2018-02-03 13:00:00 7.7 23 Noroeste 34 Noroeste 0 -- -- 49
2018-02-03 12:00:00 5.8 8 Noroeste 16 Noroeste 0 -- -- 57
2018-02-03 11:00:00 3.6 13 Noroeste 21 Noroeste 0 -- -- 69
2018-02-03 10:00:00 1.3 7 Oeste 17 Oeste 0 -- -- 76
2018-02-03 09:00:00 -0.9 8 Oeste 13 Oeste 0 -- -- 81
2018-02-03 08:00:00 -1.1 9 Oeste 13 Oeste 0 -- -- 79
2018-02-03 07:00:00 -0.7 9 Oeste 17 Oeste 0 -- -- 76
2018-02-03 06:00:00 -0.4 9 Oeste 15 Noroeste 0 -- -- 75
2018-02-03 05:00:00 -0.3 8 Oeste 15 Oeste 0 -- -- 74
2018-02-03 04:00:00 0.3 8 Noroeste 14 Oeste 0 -- -- 72
2018-02-03 03:00:00 -0.2 6 Oeste 12 Oeste 0 -- -- 75
2018-02-03 02:00:00 -0.4 7 Noroeste 15 Noroeste 0 -- -- 74
2018-02-03 01:00:00 -0.1 9 Noroeste 14 Oeste 0 -- -- 74
2018-02-03 00:00:00 0.5 6 Noroeste 13 Oeste 0 -- -- 71
2018-02-02 23:00:00 1.1 7 Noroeste 14 Noroeste 0 -- -- 69
2018-02-02 22:00:00 2.2 10 Noroeste 20 Noroeste 0 -- -- 65
2018-02-02 21:00:00 3 12 Noroeste 20 Noroeste 0 -- -- 63
2018-02-02 20:00:00 3.1 12 Noroeste 21 Noroeste 0 -- -- 63
2018-02-02 19:00:00 6 11 Norte 22 Noroeste 0 -- -- 52
2018-02-02 18:00:00 8.1 13 Norte 33 Norte 0 -- -- 45
2018-02-02 17:00:00 8.8 18 Norte 31 Noroeste 0 -- -- 42
2018-02-02 16:00:00 8.6 20 Norte 35 Noroeste 0 -- -- 43
2018-02-02 15:00:00 8.4 19 Noroeste 33 Noroeste 0 -- -- 47
2018-02-02 14:00:00 7.7 16 Noroeste 31 Noroeste 0 -- -- 54
2018-02-02 13:00:00 6.6 17 Noroeste 31 Noroeste 0 -- -- 59
2018-02-02 12:00:00 4.9 19 Noroeste 32 Noroeste 0 -- -- 69
2018-02-02 11:00:00 3.1 23 Noroeste 31 Noroeste 0 -- -- 75
2018-02-02 10:00:00 1 18 Noroeste 27 Noroeste 0 -- -- 85
2018-02-02 09:00:00 -1.2 16 Noroeste 26 Noroeste 0 -- -- 92
2018-02-02 08:00:00 -1.2 17 Noroeste 26 Noroeste 0 -- -- 91
2018-02-02 07:00:00 -0.8 20 Noroeste 28 Noroeste 0 -- -- 89
2018-02-02 06:00:00 -0.4 22 Noroeste 32 Noroeste 0 -- -- 88
2018-02-02 05:00:00 -0.1 16 Noroeste 28 Noroeste 0 -- -- 88
2018-02-02 04:00:00 0.9 19 Noroeste 27 Noroeste 0 -- -- 85
2018-02-02 03:00:00 1 16 Noroeste 23 Oeste 0 -- -- 86
2018-02-02 02:00:00 1.8 13 Noroeste 18 Noroeste 0 -- -- 83
2018-02-02 01:00:00 2.7 14 Noroeste 23 Noroeste 0 -- -- 79
2018-02-02 00:00:00 3.6 9 Norte 34 Noroeste 0 -- -- 74
2018-02-01 23:00:00 5 29 Noroeste 41 Noroeste 0 -- -- 66
2018-02-01 22:00:00 5.2 19 Noroeste 35 Noroeste 0 -- -- 62
2018-02-01 21:00:00 6.6 21 Noroeste 31 Noroeste 0 -- -- 58
2018-02-01 20:00:00 8.3 15 Noroeste 37 Noroeste 0 -- -- 58
2018-02-01 19:00:00 9.7 23 Noroeste 36 Noroeste 0 -- -- 58
2018-02-01 18:00:00 9.7 18 Noroeste 31 Noroeste 0 -- -- 72
2018-02-01 17:00:00 10.2 18 Noroeste 42 Noroeste 0 -- -- 71
2018-02-01 16:00:00 11.3 27 Noroeste 37 Noroeste 0 -- -- 66
2018-02-01 15:00:00 10.5 25 Noroeste 37 Noroeste 0 -- -- 70
2018-02-01 14:00:00 12.3 19 Oeste 29 Noroeste 0 -- -- 63
2018-02-01 13:00:00 10.8 17 Oeste 25 Oeste 0 -- -- 66
2018-02-01 12:00:00 8.6 9 Oeste 20 Oeste 0 -- -- 77
2018-02-01 11:00:00 7.7 7 Noroeste 10 Noroeste 0 -- -- 79
2018-02-01 10:00:00 7.1 8 Sudoeste 14 Oeste 0 -- -- 77
2018-02-01 09:00:00 5.4 10 Sudoeste 13 Sudoeste 0 -- -- 80
2018-02-01 08:00:00 5.2 8 Sudoeste 16 Oeste 0 -- -- 81
2018-02-01 07:00:00 5.3 9 Oeste 14 Oeste 0 -- -- 80
2018-02-01 06:00:00 4.3 8 Oeste 15 Oeste 0 -- -- 83
2018-02-01 05:00:00 4.8 13 Oeste 17 Oeste 0 -- -- 83
2018-02-01 04:00:00 5 10 Oeste 13 Oeste 0 -- -- 83
2018-02-01 03:00:00 6 9 Oeste 13 Oeste 0 -- -- 77
2018-02-01 02:00:00 5.7 8 Oeste 11 Sudoeste 0 -- -- 76
2018-02-01 01:00:00 5.6 5 Sudoeste 8 Sudoeste 0 -- -- 71
2018-02-01 00:00:00 5.8 5 Sur 8 Sur 0 -- -- 71
2018-01-31 23:00:00 6.6 4 Oeste 14 Noroeste 0 -- -- 67
2018-01-31 22:00:00 7.3 6 Noroeste 12 Noroeste 0 -- -- 70
2018-01-31 21:00:00 7.4 4 Oeste 9 Oeste 0 -- -- 74
2018-01-31 20:00:00 8.4 5 Norte 15 Norte 0 -- -- 70
2018-01-31 19:00:00 10.3 8 Norte 16 Norte 0 -- -- 58
2018-01-31 18:00:00 12.9 9 Nordeste 16 Este -- -- -- 56
2018-01-31 17:00:00 14.3 8 Nordeste 15 Nordeste 0 -- -- 52
2018-01-31 16:00:00 13.5 9 Nordeste 20 Norte 0 -- -- 58
2018-01-31 15:00:00 13.9 11 Nordeste 21 Nordeste 0 -- -- 56
2018-01-31 14:00:00 12.4 13 Nordeste 18 Norte 0 -- -- 65
2018-01-31 13:00:00 10.5 4 Nordeste 10 Este 0 -- -- 71
2018-01-31 12:00:00 9.8 4 Nordeste 13 Este 0 -- -- 75
2018-01-31 11:00:00 7.2 4 Norte 15 Norte 0 -- -- 85
2018-01-31 10:00:00 5.8 9 Norte 15 Norte 0 -- -- 85
2018-01-31 09:00:00 5.2 5 Norte 11 Sudeste 0 -- -- 84
2018-01-31 08:00:00 5.5 5 Este 6 Este 0 -- -- 84
2018-01-31 07:00:00 6.3 0 Calma 5 Este 0 -- -- 80
2018-01-31 06:00:00 6.4 2 Nordeste 9 Nordeste 0 -- -- 81
2018-01-31 05:00:00 6.9 3 Nordeste 7 Nordeste 0 -- -- 78
2018-01-31 04:00:00 7.5 4 Este 10 Este 0 -- -- 74
2018-01-31 03:00:00 7.3 5 Este 8 Este 0 -- -- 74
2018-01-31 02:00:00 7.4 4 Este 10 Nordeste 0 -- -- 74
2018-01-31 01:00:00 7.1 3 Nordeste 9 Nordeste 0 -- -- 76
2018-01-31 00:00:00 7.1 6 Nordeste 11 Nordeste 0 -- -- 77
2018-01-30 23:00:00 7.8 3 Norte 10 Este 0 -- -- 74
2018-01-30 22:00:00 9 7 Este 14 Nordeste 0 -- -- 70
2018-01-30 21:00:00 9.7 8 Este 14 Este 0 -- -- 68
2018-01-30 20:00:00 9.7 6 Este 12 Nordeste 0 -- -- 68
2018-01-30 19:00:00 10.3 4 Norte 10 Norte 0 -- -- 70
2018-01-30 18:00:00 12.4 7 Nordeste 14 Nordeste 0 -- -- 65
2018-01-30 17:00:00 14.4 7 Nordeste 12 Norte 0 -- -- 56
2018-01-30 16:00:00 15.2 4 Este 12 Sudeste 0 -- -- 50
2018-01-30 15:00:00 14.7 5 Este 17 Este 0 -- -- 54
2018-01-30 14:00:00 13.4 12 Este 22 Este 0 -- -- 57
2018-01-30 13:00:00 12 15 Este 28 Este 0 -- -- 58
2018-01-30 12:00:00 10.6 12 Este 26 Este 0 -- -- 65
2018-01-30 11:00:00 7.2 16 Este 23 Este 0 -- -- 82
2018-01-30 10:00:00 5.3 10 Nordeste 17 Nordeste 0 -- -- 85
2018-01-30 09:00:00 4 4 Este 12 Nordeste 0 -- -- 88
2018-01-30 08:00:00 4 4 Este 11 Este 0 -- -- 88
2018-01-30 07:00:00 3.8 5 Nordeste 10 Nordeste 0 -- -- 89
2018-01-30 06:00:00 5.1 6 Este 13 Este 0 -- -- 86
2018-01-30 05:00:00 5.3 7 Este 15 Nordeste 0 -- -- 86
2018-01-30 04:00:00 5.6 9 Nordeste 14 Nordeste 0 -- -- 85
2018-01-30 03:00:00 5.8 4 Este 16 Este 0 -- -- 85
2018-01-30 02:00:00 6.3 9 Este 17 Nordeste 0 -- -- 85
2018-01-30 01:00:00 6.6 6 Nordeste 12 Nordeste 0 -- -- 85
2018-01-30 00:00:00 8 10 Este 25 Este 0 -- -- 81
2018-01-29 23:00:00 8.4 10 Este 19 Este 0 -- -- 81
2018-01-29 22:00:00 9.8 14 Este 22 Este 0 -- -- 76
2018-01-29 21:00:00 9.5 8 Este 16 Este 0 -- -- 77
2018-01-29 20:00:00 10.4 6 Este 19 Nordeste 0 -- -- 73
2018-01-29 19:00:00 11.9 8 Nordeste 15 Nordeste 0 -- -- 68
2018-01-29 18:00:00 13.8 8 Nordeste 23 Este 0 -- -- 58
2018-01-29 17:00:00 14.4 16 Este 32 Este 0 -- -- 53
2018-01-29 16:00:00 14.4 16 Nordeste 33 Nordeste 0 -- -- 53
2018-01-29 15:00:00 14.3 16 Nordeste 31 Nordeste 0 -- -- 58
2018-01-29 14:00:00 14 15 Nordeste 33 Nordeste 0 -- -- 61
2018-01-29 13:00:00 12.9 18 Nordeste 32 Nordeste 0 -- -- 61
2018-01-29 12:00:00 11.5 17 Nordeste 28 Nordeste 0 -- -- 66
2018-01-29 11:00:00 9.6 14 Nordeste 25 Nordeste -- -- -- 74
2018-01-29 10:00:00 6.8 10 Nordeste 18 Nordeste 0 -- -- 87
2018-01-29 09:00:00 5.7 11 Nordeste 21 Nordeste 0 -- -- 88
2018-01-29 08:00:00 5.4 6 Este 15 Nordeste 0 -- -- 88
2018-01-29 07:00:00 5.6 8 Nordeste 22 Nordeste 0 -- -- 88
2018-01-29 06:00:00 5.4 9 Nordeste 21 Nordeste 0 -- -- 89
2018-01-29 05:00:00 5.6 10 Nordeste 22 Nordeste 0 -- -- 86
2018-01-29 04:00:00 4.7 3 Noroeste 11 Nordeste 0 -- -- 88
2018-01-29 03:00:00 4 6 Noroeste 15 Nordeste 0 -- -- 91
2018-01-29 02:00:00 5.7 9 Nordeste 17 Este 0 -- -- 84
2018-01-29 01:00:00 6 7 Este 20 Este 0 -- -- 76
2018-01-29 00:00:00 4.7 4 Este 15 Nordeste 0 -- -- 69
2018-01-28 23:00:00 6.1 9 Nordeste 20 Este 0 -- -- 58
2018-01-28 22:00:00 7.2 10 Este 19 Este 0 -- -- 54
2018-01-28 21:00:00 6.8 5 Sudeste 23 Este 0 -- -- 56
2018-01-28 20:00:00 8.6 12 Este 26 Este 0 -- -- 49
2018-01-28 19:00:00 9.6 12 Este 42 Sudeste 0 -- -- 48
2018-01-28 18:00:00 11.4 21 Este 47 Este 0 -- -- 44
2018-01-28 17:00:00 11.6 23 Este 41 Este 0 -- -- 46
2018-01-28 16:00:00 11.6 24 Este 44 Nordeste 0 -- -- 54
2018-01-28 15:00:00 10.4 24 Nordeste 44 Este 0 -- -- 65
2018-01-28 14:00:00 9.8 27 Este 59 Este 0 -- -- 67
2018-01-28 13:00:00 9.6 28 Este 54 Este 0 -- -- 67
2018-01-28 12:00:00 8.2 23 Nordeste 46 Nordeste 0 -- -- 65
2018-01-28 11:00:00 7 23 Nordeste 42 Nordeste 0 -- -- 65
2018-01-28 10:00:00 5.2 15 Norte 23 Norte 0 -- -- 69
2018-01-28 09:00:00 2.5 8 Norte 18 Norte 0 -- -- 76
2018-01-28 08:00:00 1.5 4 Oeste 18 Norte 0 -- -- 79
2018-01-28 07:00:00 1.7 5 Noroeste 19 Noroeste 0 -- -- 77
2018-01-28 06:00:00 2.1 10 Noroeste 26 Norte 0 -- -- 76
2018-01-28 05:00:00 2.4 14 Norte 24 Norte 0 -- -- 73
2018-01-28 04:00:00 2.9 14 Nordeste 23 Nordeste 0 -- -- 72
2018-01-28 03:00:00 4.1 14 Nordeste 23 Este 0 -- -- 67
2018-01-28 02:00:00 4.3 15 Nordeste 26 Nordeste 0 -- -- 67
2018-01-28 01:00:00 4.8 13 Nordeste 26 Nordeste 0 -- -- 66
2018-01-28 00:00:00 4.5 12 Nordeste 22 Nordeste 0 -- -- 69
2018-01-27 23:00:00 4.5 8 Norte 16 Norte 0 -- -- 70
2018-01-27 22:00:00 5.4 7 Norte 12 Nordeste 0 -- -- 68
2018-01-27 21:00:00 6.8 8 Norte 14 Nordeste 0 -- -- 61
2018-01-27 20:00:00 7 3 Norte 9 Nordeste 0 -- -- 67
2018-01-27 19:00:00 7.9 6 Nordeste 23 Nordeste 0 -- -- 57
2018-01-27 18:00:00 8.9 14 Nordeste 28 Norte 0 -- -- 51
2018-01-27 17:00:00 9.4 23 Norte 33 Nordeste 0 -- -- 50
2018-01-27 16:00:00 9.7 22 Norte 35 Nordeste 0 -- -- 47
2018-01-27 15:00:00 9.5 22 Norte 36 Norte 0 -- -- 48
2018-01-27 14:00:00 9.1 26 Norte 38 Nordeste 0 -- -- 48
2018-01-27 13:00:00 8.9 22 Norte 33 Nordeste 0 -- -- 51
2018-01-27 12:00:00 7.1 7 Norte 19 Noroeste 0 -- -- 75
2018-01-27 11:00:00 4.6 11 Noroeste 22 Noroeste 0 -- -- 83
2018-01-27 10:00:00 2.2 9 Noroeste 17 Noroeste 0 -- -- 91
2018-01-27 09:00:00 0.1 11 Noroeste 17 Oeste 0 -- -- 95
2018-01-27 08:00:00 0.1 7 Noroeste 13 Noroeste 0 -- -- 95
2018-01-27 07:00:00 -0.2 10 Noroeste 18 Noroeste 0 -- -- 95
2018-01-27 06:00:00 0.1 12 Noroeste 20 Noroeste 0 -- -- 96
2018-01-27 05:00:00 0.3 12 Noroeste 18 Noroeste 0 -- -- 95
2018-01-27 04:00:00 0.6 13 Noroeste 21 Noroeste 0 -- -- 93
2018-01-27 03:00:00 0.9 10 Oeste 16 Oeste 0 -- -- 91
2018-01-27 02:00:00 1.5 9 Noroeste 18 Noroeste 0 -- -- 89
2018-01-27 01:00:00 2.6 14 Noroeste 25 Noroeste 0 -- -- 85
2018-01-27 00:00:00 3.8 20 Noroeste 30 Noroeste 0 -- -- 78
2018-01-26 23:00:00 3.8 20 Noroeste 27 Noroeste 0 -- -- 78
2018-01-26 22:00:00 4.2 18 Noroeste 25 Noroeste 0 -- -- 78
2018-01-26 21:00:00 4.3 17 Noroeste 25 Noroeste 0 -- -- 79
2018-01-26 20:00:00 5 9 Noroeste 19 Noroeste 0 -- -- 76
2018-01-26 19:00:00 6.4 13 Noroeste 28 Noroeste 0 -- -- 72
2018-01-26 18:00:00 7.6 11 Noroeste 37 Noroeste 0 -- -- 67
2018-01-26 17:00:00 8.8 22 Noroeste 38 Noroeste 0 -- -- 62
2018-01-26 16:00:00 9 17 Noroeste 39 Noroeste 0 -- -- 64
2018-01-26 15:00:00 7.7 24 Noroeste 41 Noroeste 0 -- -- 71
2018-01-26 14:00:00 7.3 20 Noroeste 35 Noroeste 0 -- -- 72
2018-01-26 13:00:00 6.8 18 Noroeste 37 Noroeste 0 -- -- 78
2018-01-26 12:00:00 5.8 22 Noroeste 36 Noroeste 0 -- -- 82
2018-01-26 11:00:00 4.1 20 Noroeste 30 Noroeste 0 -- -- 92
2018-01-26 10:00:00 2.3 21 Noroeste 31 Noroeste 0 -- -- 96
2018-01-26 09:00:00 0.7 11 Norte 31 Noroeste 0 -- -- 96
2018-01-26 08:00:00 1 22 Noroeste 39 Noroeste 0 -- -- 96
2018-01-26 07:00:00 1.2 28 Noroeste 44 Oeste 0 -- -- 97
2018-01-26 06:00:00 1.6 31 Noroeste 44 Noroeste 0 -- -- 97
2018-01-26 05:00:00 2.2 35 Noroeste 53 Noroeste 0 -- -- 97
2018-01-26 04:00:00 2.7 37 Noroeste 53 Noroeste 0 -- -- 96
2018-01-26 03:00:00 2.5 33 Noroeste 45 Noroeste 0 -- -- 96
2018-01-26 02:00:00 2.6 31 Noroeste 46 Noroeste 0 -- -- 94
2018-01-26 01:00:00 3.2 32 Noroeste 43 Noroeste 0 -- -- 94
2018-01-26 00:00:00 4.1 33 Noroeste 49 Noroeste 0 -- -- 93
2018-01-25 23:00:00 4.6 33 Noroeste 49 Noroeste 0 -- -- 94
2018-01-25 22:00:00 4.6 22 Noroeste 33 Noroeste 0 -- -- 92
2018-01-25 21:00:00 5.6 14 Oeste 33 Noroeste 0 -- -- 92
2018-01-25 20:00:00 6.2 18 Noroeste 45 Noroeste 0 -- -- 91
2018-01-25 19:00:00 7.4 14 Oeste 34 Noroeste 0.6 -- -- 93
2018-01-25 18:00:00 8.4 17 Noroeste 37 Oeste 0.6 -- -- 95
2018-01-25 17:00:00 9.1 21 Oeste 39 Oeste 0.4 -- -- 94
2018-01-25 16:00:00 8.8 16 Sudoeste 28 Sudoeste 0.2 -- -- 93
2018-01-25 15:00:00 9.3 15 Sudoeste 28 Sudoeste 0.4 -- -- 89
2018-01-25 14:00:00 10.5 15 Sudoeste 24 Sudoeste 0 -- -- 77
2018-01-25 13:00:00 10.8 14 Sur 25 Sudoeste 0 -- -- 75
2018-01-25 12:00:00 10.1 19 Sur 30 Sudoeste 0 -- -- 80
2018-01-25 11:00:00 9.1 15 Sudoeste 22 Sudoeste 0 -- -- 86
2018-01-25 10:00:00 6.2 8 Oeste 12 Sur 0 -- -- 100
2018-01-25 09:00:00 6 9 Sudoeste 13 Sudoeste 0 -- -- 99
2018-01-25 08:00:00 5.7 6 Sur 13 Sudeste 0 -- -- 98
2018-01-25 07:00:00 6.6 6 Sur 11 Sur 0 -- -- 99
2018-01-25 06:00:00 4.7 8 Sur 10 Sur 0 -- -- 99
2018-01-25 05:00:00 4.7 0 Calma 9 Sudoeste 0 -- -- 98
2018-01-25 04:00:00 4.8 5 Oeste 15 Noroeste 0 -- -- 98
2018-01-25 03:00:00 6.4 8 Noroeste 13 Noroeste 0 -- -- 97
2018-01-25 02:00:00 6.8 7 Oeste 10 Oeste 0 -- -- 97
2018-01-25 01:00:00 6.7 8 Oeste 11 Noroeste 0 -- -- 96
2018-01-25 00:00:00 7.2 5 Noroeste 9 Noroeste 0 -- -- 93
2018-01-24 23:00:00 8.6 6 Oeste 9 Noroeste 0 -- -- 89
2018-01-24 22:00:00 9.7 3 Oeste 8 Noroeste 0 -- -- 87
2018-01-24 21:00:00 10.6 4 Oeste 5 Noroeste 0 -- -- 79
2018-01-24 20:00:00 12.6 0 Calma 4 Noroeste 0 -- -- 70
2018-01-24 19:00:00 14 0 Calma 5 Sudeste 0 -- -- 66
2018-01-24 18:00:00 16.1 2 Norte 9 Noroeste 0 -- -- 61
2018-01-24 17:00:00 17.6 6 Oeste 18 Oeste 0 -- -- 50
2018-01-24 16:00:00 18.2 13 Oeste 17 Oeste 0 -- -- 45
2018-01-24 15:00:00 16.9 5 Sudeste 9 Sudeste 0 -- -- 60
2018-01-24 14:00:00 15.8 4 Sudeste 9 Sudeste 0 -- -- 65
2018-01-24 13:00:00 14.3 5 Sudeste 12 Sur 0 -- -- 71
2018-01-24 12:00:00 11.8 8 Sudeste 14 Sudeste 0 -- -- 78
2018-01-24 11:00:00 9.7 9 Sudeste 16 Sudeste 0 -- -- 85
2018-01-24 10:00:00 9 9 Sudeste 15 Sudeste 0 -- -- 88
2018-01-24 09:00:00 7.5 10 Sudeste 15 Sudeste 0 -- -- 92
2018-01-24 08:00:00 6.8 8 Sudeste 12 Sur 0 -- -- 99
2018-01-24 07:00:00 5.9 5 Sudeste 8 Sudeste 0 -- -- 98
2018-01-24 06:00:00 5.6 3 Sudeste 7 Sudeste 0 -- -- 98
2018-01-24 05:00:00 5.9 6 Sudeste 8 Sudeste 0 -- -- 99
2018-01-24 04:00:00 5.6 5 Este 6 Este 0 -- -- 99
2018-01-24 03:00:00 5.6 2 Nordeste 3 Nordeste -- -- -- 99
2018-01-24 02:00:00 6.1 2 Noroeste 3 Oeste 0 -- -- 99
2018-01-24 01:00:00 6.2 2 Oeste 5 Oeste 0 -- -- 99
2018-01-24 00:00:00 5.6 4 Oeste 8 Oeste 0 -- -- 98
2018-01-23 23:00:00 5.7 6 Oeste 9 Oeste 0 -- -- 97
2018-01-23 22:00:00 6.4 6 Oeste 9 Oeste 0 -- -- 96
2018-01-23 21:00:00 7.4 6 Oeste 8 Oeste 0 -- -- 93
2018-01-23 20:00:00 8.5 5 Noroeste 10 Noroeste 0 -- -- 92
2018-01-23 19:00:00 10.2 6 Noroeste 10 Noroeste 0 -- -- 87
2018-01-23 18:00:00 13 5 Norte 9 Noroeste 0 -- -- 82
2018-01-23 17:00:00 13.4 6 Norte 9 Norte 0 -- -- 82
2018-01-23 16:00:00 13 5 Norte 11 Noroeste 0 -- -- 87
2018-01-23 15:00:00 11.3 8 Noroeste 14 Noroeste 0 -- -- 98
2018-01-23 14:00:00 8.5 5 Norte 10 Noroeste 0 -- -- 100
2018-01-23 13:00:00 7.3 4 Nordeste 9 Norte 0 -- -- 100
2018-01-23 12:00:00 5.8 4 Norte 10 Noroeste 0 -- -- 100
2018-01-23 11:00:00 4.8 4 Norte 12 Nordeste 0 -- -- 100
2018-01-23 10:00:00 4.1 5 Nordeste 12 Norte 0 -- -- 100
2018-01-23 09:00:00 4.2 6 Nordeste 11 Nordeste 0 -- -- 100
2018-01-23 08:00:00 4.5 6 Norte 13 Norte 0 -- -- 100
2018-01-23 07:00:00 5.1 6 Norte 13 Nordeste 0 -- -- 100
2018-01-23 06:00:00 4.7 7 Norte 13 Norte 0 -- -- 100
2018-01-23 05:00:00 4.3 5 Nordeste 9 Norte 0 -- -- 100
2018-01-23 04:00:00 4.5 3 Nordeste 8 Noroeste 0.2 -- -- 100
2018-01-23 03:00:00 5.1 5 Noroeste 8 Noroeste 0 -- -- 99
2018-01-23 02:00:00 4.3 2 Noroeste 10 Nordeste 0 -- -- 99
2018-01-23 01:00:00 4.8 4 Norte 8 Nordeste 0 -- -- 99
2018-01-23 00:00:00 4.8 4 Noroeste 13 Noroeste 0 -- -- 99
2018-01-22 23:00:00 5.3 9 Noroeste 13 Noroeste 0 -- -- 99
2018-01-22 22:00:00 5.6 8 Norte 18 Noroeste 0 -- -- 98
2018-01-22 21:00:00 6.1 9 Noroeste 20 Noroeste 0 -- -- 97
2018-01-22 20:00:00 7.7 14 Noroeste 18 Noroeste 0 -- -- 96
2018-01-22 19:00:00 9.3 9 Noroeste 21 Noroeste 0 -- -- 89
2018-01-22 18:00:00 12.6 13 Noroeste 20 Noroeste 0 -- -- 77
2018-01-22 17:00:00 13.6 11 Noroeste 20 Norte 0 -- -- 79
2018-01-22 16:00:00 13.4 14 Noroeste 20 Noroeste 0 -- -- 78
2018-01-22 15:00:00 12.4 13 Noroeste 20 Noroeste 0 -- -- 84
2018-01-22 14:00:00 10.5 9 Noroeste 15 Noroeste 0 -- -- 99
2018-01-22 13:00:00 8.7 10 Noroeste 15 Noroeste 0 -- -- 100
2018-01-22 12:00:00 7.3 7 Oeste 15 Noroeste 0 -- -- 100
2018-01-22 11:00:00 6.2 9 Noroeste 14 Noroeste 0 -- -- 100
2018-01-22 10:00:00 5.7 9 Noroeste 13 Noroeste 0 -- -- 99
2018-01-22 09:00:00 4.5 5 Oeste 8 Oeste 0 -- -- 99
2018-01-22 08:00:00 4.9 5 Noroeste 8 Noroeste 0 -- -- 99
2018-01-22 07:00:00 5.7 4 Noroeste 10 Noroeste 0 -- -- 99
2018-01-22 06:00:00 6 5 Oeste 12 Oeste 0 -- -- 99
2018-01-22 05:00:00 6.2 10 Noroeste 17 Noroeste 0 -- -- 99
2018-01-22 04:00:00 6.9 11 Noroeste 16 Noroeste 0 -- -- 98
2018-01-22 03:00:00 5.8 9 Oeste 15 Oeste 0 -- -- 98
2018-01-22 02:00:00 6 8 Oeste 13 Oeste 0 -- -- 98
2018-01-22 01:00:00 6.1 5 Noroeste 11 Oeste 0 -- -- 97
2018-01-22 00:00:00 6.6 9 Oeste 12 Oeste 0 -- -- 96